createdAt,value
2023-04-10T00:00:08.828Z,25.25
2023-04-10T00:02:40.168Z,22.55
2023-04-10T00:05:08.386Z,20.42
2023-04-10T00:07:36.033Z,23.12
2023-04-10T00:10:03.520Z,21.85
2023-04-10T00:12:31.313Z,23.30
2023-04-10T00:14:59.297Z,22.00
2023-04-10T00:17:26.706Z,20.90
2023-04-10T00:19:54.066Z,23.40
2023-04-10T00:22:21.720Z,21.08
2023-04-10T00:24:49.108Z,22.35
2023-04-10T00:27:16.476Z,24.40
2023-04-10T00:29:44.178Z,25.80
2023-04-10T00:32:11.608Z,20.70
2023-04-10T00:34:39.009Z,22.60
2023-04-10T00:37:07.269Z,23.80
2023-04-10T00:39:34.721Z,22.65
2023-04-10T00:42:02.418Z,23.42
2023-04-10T00:44:30.352Z,22.40
2023-04-10T00:46:57.845Z,22.02
2023-04-10T00:49:25.336Z,22.77
2023-04-10T00:51:55.683Z,22.73
2023-04-10T00:54:23.964Z,20.62
2023-04-10T00:56:53.024Z,22.70
2023-04-10T00:59:21.281Z,22.05
2023-04-10T01:01:48.777Z,19.12
2023-04-10T01:04:16.747Z,23.80
2023-04-10T01:07:09.565Z,22.73
2023-04-10T01:09:41.914Z,21.87
2023-04-10T01:12:37.933Z,23.42
2023-04-10T01:15:23.851Z,23.08
2023-04-10T01:18:10.035Z,21.65
2023-04-10T01:23:30.774Z,18.33
2023-04-10T01:26:02.015Z,18.17
2023-04-10T01:28:39.301Z,20.50
2023-04-10T01:31:09.222Z,17.87
2023-04-10T01:34:00.816Z,20.15
2023-04-10T01:36:32.347Z,17.50
2023-04-10T01:39:00.411Z,19.15
2023-04-10T01:41:28.009Z,20.42
2023-04-10T01:43:56.387Z,19.83
2023-04-10T01:46:24.925Z,19.52
2023-04-10T01:48:53.962Z,19.30
2023-04-10T01:51:22.150Z,20.10
2023-04-10T01:53:50.776Z,19.90
2023-04-10T01:56:22.434Z,17.40
2023-04-10T01:58:51.048Z,20.10
2023-04-10T02:01:29.200Z,21.60
2023-04-10T02:03:58.883Z,20.95
2023-04-10T02:06:33.419Z,18.15
2023-04-10T02:09:28.582Z,20.00
2023-04-10T02:12:04.607Z,19.73
2023-04-10T02:14:33.198Z,18.70
2023-04-10T02:17:01.762Z,21.30
2023-04-10T02:19:29.315Z,16.90
2023-04-10T02:21:58.091Z,19.90
2023-04-10T02:24:27.134Z,16.77
2023-04-10T02:26:54.535Z,17.92
2023-04-10T02:29:23.616Z,18.35
2023-04-10T02:31:51.006Z,16.92
2023-04-10T02:34:19.751Z,18.92
2023-04-10T02:36:47.387Z,18.12
2023-04-10T02:39:14.857Z,18.37
2023-04-10T02:41:46.474Z,19.33
2023-04-10T02:44:14.500Z,17.75
2023-04-10T02:46:43.725Z,16.98
2023-04-10T02:49:11.259Z,18.52
2023-04-10T02:51:39.128Z,17.52
2023-04-10T02:54:06.511Z,17.98
2023-04-10T02:56:35.131Z,18.45
2023-04-10T02:59:03.556Z,18.00
2023-04-10T03:01:32.105Z,18.33
2023-04-10T03:03:59.956Z,18.92
2023-04-10T03:06:27.905Z,19.00
2023-04-10T03:08:56.204Z,21.75
2023-04-10T03:11:23.679Z,19.70
2023-04-10T03:13:51.681Z,18.10
2023-04-10T03:16:19.263Z,19.83
2023-04-10T03:18:47.183Z,18.17
2023-04-10T03:21:14.890Z,17.73
2023-04-10T03:23:42.704Z,18.27
2023-04-10T03:26:11.309Z,16.60
2023-04-10T03:28:39.833Z,19.08
2023-04-10T03:31:10.717Z,19.70
2023-04-10T03:33:39.244Z,18.27
2023-04-10T03:36:07.618Z,18.58
2023-04-10T03:38:35.806Z,18.80
2023-04-10T03:41:03.356Z,15.93
2023-04-10T03:43:31.575Z,17.20
2023-04-10T03:45:59.143Z,16.00
2023-04-10T03:48:28.558Z,18.15
2023-04-10T03:50:56.525Z,16.20
2023-04-10T03:53:24.389Z,19.15
2023-04-10T03:55:52.924Z,16.15
2023-04-10T03:58:21.463Z,18.20
2023-04-10T04:00:48.986Z,17.92
2023-04-10T04:03:18.147Z,19.12
2023-04-10T04:05:47.563Z,17.45
2023-04-10T04:08:18.107Z,20.50
2023-04-10T04:10:49.886Z,19.02
2023-04-10T04:13:17.889Z,19.65
2023-04-10T04:15:48.051Z,19.52
2023-04-10T04:18:15.926Z,20.55
2023-04-10T04:20:43.367Z,20.12
2023-04-10T04:23:11.013Z,20.73
2023-04-10T04:25:39.192Z,21.80
2023-04-10T04:28:08.287Z,24.02
2023-04-10T04:30:35.801Z,19.67
2023-04-10T04:33:04.835Z,22.48
2023-04-10T04:35:32.654Z,22.40
2023-04-10T04:38:00.478Z,23.98
2023-04-10T04:40:28.898Z,21.60
2023-04-10T04:42:56.664Z,19.83
2023-04-10T04:45:24.877Z,23.05
2023-04-10T04:47:54.755Z,20.73
2023-04-10T04:50:22.323Z,21.92
2023-04-10T04:52:50.854Z,21.80
2023-04-10T04:55:19.114Z,23.10
2023-04-10T04:57:48.097Z,21.90
2023-04-10T05:00:17.340Z,21.87
2023-04-10T05:02:46.626Z,22.62
2023-04-10T05:05:14.173Z,22.52
2023-04-10T05:07:41.762Z,20.42
2023-04-10T05:10:10.082Z,21.20
2023-04-10T05:12:37.903Z,20.20
2023-04-10T05:15:06.421Z,21.60
2023-04-10T05:17:34.250Z,23.45
2023-04-10T05:20:02.566Z,21.37
2023-04-10T05:22:35.530Z,23.90
2023-04-10T05:25:06.121Z,22.50
2023-04-10T05:27:34.691Z,22.33
2023-04-10T05:30:03.718Z,21.65
2023-04-10T05:32:32.874Z,21.95
2023-04-10T05:35:00.692Z,22.13
2023-04-10T05:37:28.541Z,23.20
2023-04-10T05:39:57.323Z,23.83
2023-04-10T05:42:25.029Z,22.58
2023-04-10T05:44:53.053Z,23.48
2023-04-10T05:47:22.164Z,23.20
2023-04-10T05:49:49.951Z,23.95
2023-04-10T05:52:19.595Z,22.17
2023-04-10T05:54:47.371Z,22.33
2023-04-10T05:57:15.901Z,22.52
2023-04-10T05:59:43.762Z,23.50
2023-04-10T06:02:12.172Z,22.85
2023-04-10T06:04:40.565Z,23.92
2023-04-10T06:07:08.307Z,22.33
2023-04-10T06:09:35.671Z,21.40
2023-04-10T06:12:06.056Z,21.42
2023-04-10T06:14:33.499Z,20.90
2023-04-10T06:17:01.817Z,21.17
2023-04-10T06:19:29.560Z,21.85
2023-04-10T06:21:57.507Z,21.65
2023-04-10T06:24:24.908Z,20.27
2023-04-10T06:26:52.688Z,21.85
2023-04-10T06:29:20.379Z,20.58
2023-04-10T06:31:47.840Z,20.92
2023-04-10T06:34:16.563Z,18.42
2023-04-10T06:36:47.501Z,20.12
2023-04-10T06:39:15.029Z,20.83
2023-04-10T06:41:42.654Z,20.02
2023-04-10T06:44:13.358Z,18.80
2023-04-10T06:46:40.901Z,18.35
2023-04-10T06:49:08.743Z,18.75
2023-04-10T06:51:36.512Z,17.02
2023-04-10T06:54:03.912Z,17.25
2023-04-10T06:56:33.741Z,17.77
2023-04-10T06:59:01.655Z,15.80
2023-04-10T07:01:29.107Z,16.35
2023-04-10T07:03:56.845Z,16.15
2023-04-10T07:06:24.751Z,15.07
2023-04-10T07:08:52.382Z,12.18
2023-04-10T07:11:20.177Z,10.80
2023-04-10T07:13:47.570Z,12.05
2023-04-10T07:16:15.013Z,11.55
2023-04-10T07:18:42.699Z,12.98
2023-04-10T07:21:12.178Z,12.90
2023-04-10T07:23:39.723Z,12.70
2023-04-10T07:26:07.429Z,13.27
2023-04-10T07:28:34.960Z,12.98
2023-04-10T07:31:02.466Z,12.98
2023-04-10T07:33:30.115Z,13.68
2023-04-10T07:35:57.716Z,15.43
2023-04-10T07:38:25.491Z,15.23
2023-04-10T07:40:57.456Z,14.68
2023-04-10T07:43:25.264Z,14.48
2023-04-10T07:45:53.073Z,14.18
2023-04-10T07:48:20.634Z,14.00
2023-04-10T07:50:48.193Z,14.02
2023-04-10T07:53:16.068Z,14.57
2023-04-10T07:55:44.818Z,12.27
2023-04-10T07:58:12.204Z,13.05
2023-04-10T08:00:39.960Z,13.62
2023-04-10T08:03:08.051Z,13.55
2023-04-10T08:05:36.364Z,13.00
2023-04-10T08:08:03.832Z,12.60
2023-04-10T08:10:31.663Z,11.45
2023-04-10T08:12:59.058Z,12.57
2023-04-10T08:15:26.449Z,10.68
2023-04-10T08:17:54.243Z,7.03
2023-04-10T08:20:21.686Z,9.32
2023-04-10T08:22:49.089Z,9.25
2023-04-10T08:25:16.874Z,8.48
2023-04-10T08:27:44.308Z,8.18
2023-04-10T08:30:11.904Z,9.95
2023-04-10T08:32:39.823Z,11.05
2023-04-10T08:35:07.606Z,11.02
2023-04-10T08:37:35.026Z,9.65
2023-04-10T08:40:02.663Z,9.70
2023-04-10T08:42:31.693Z,10.30
2023-04-10T08:44:59.986Z,10.43
2023-04-10T08:47:28.977Z,10.65
2023-04-10T08:49:57.887Z,9.32
2023-04-10T08:52:26.253Z,9.65
2023-04-10T08:54:56.081Z,9.57
2023-04-10T08:57:23.699Z,10.05
2023-04-10T08:59:51.715Z,9.60
2023-04-10T09:02:20.291Z,11.02
2023-04-10T09:04:51.160Z,12.55
2023-04-10T09:07:18.971Z,13.40
2023-04-10T09:09:46.581Z,13.52
2023-04-10T09:12:15.464Z,11.90
2023-04-10T09:14:43.454Z,11.48
2023-04-10T09:17:22.015Z,11.48
2023-04-10T09:19:52.791Z,10.30
2023-04-10T09:22:30.003Z,10.18
2023-04-10T09:24:59.438Z,11.00
2023-04-10T09:27:39.792Z,11.20
2023-04-10T09:30:08.463Z,9.77
2023-04-10T09:32:37.261Z,9.70
2023-04-10T09:35:05.926Z,9.90
2023-04-10T09:37:34.301Z,10.25
2023-04-10T09:40:04.366Z,9.00
2023-04-10T09:42:33.958Z,10.55
2023-04-10T09:45:01.901Z,9.95
2023-04-10T09:47:29.922Z,10.15
2023-04-10T09:50:00.633Z,9.98
2023-04-10T09:52:29.049Z,8.88
2023-04-10T09:55:01.360Z,9.32
2023-04-10T09:57:30.891Z,10.18
2023-04-10T10:00:08.317Z,10.65
2023-04-10T10:02:41.424Z,9.15
2023-04-10T10:05:09.926Z,8.93
2023-04-10T10:07:38.783Z,8.40
2023-04-10T10:10:09.807Z,8.40
2023-04-10T10:12:37.223Z,7.55
2023-04-10T10:15:14.554Z,8.23
2023-04-10T10:18:25.472Z,8.32
2023-04-10T10:20:53.516Z,8.45
2023-04-10T10:23:22.457Z,7.68
2023-04-10T10:25:50.502Z,7.32
2023-04-10T10:28:19.459Z,7.55
2023-04-10T10:30:48.134Z,7.72
2023-04-10T10:33:15.588Z,8.13
2023-04-10T10:35:44.497Z,7.50
2023-04-10T10:38:12.433Z,7.68
2023-04-10T10:41:01.048Z,8.10
2023-04-10T10:43:47.401Z,8.43
2023-04-10T10:46:21.712Z,9.38
2023-04-10T10:48:58.346Z,9.18
2023-04-10T10:51:49.807Z,8.55
2023-04-10T10:54:40.354Z,7.55
2023-04-10T10:57:47.399Z,7.75
2023-04-10T11:00:16.380Z,8.48
2023-04-10T11:02:44.133Z,8.35
2023-04-10T11:05:51.027Z,8.13
2023-04-10T11:08:19.180Z,8.90
2023-04-10T11:11:06.053Z,8.75
2023-04-10T11:13:38.877Z,9.90
2023-04-10T11:16:07.948Z,8.75
2023-04-10T11:18:44.654Z,8.13
2023-04-10T11:21:19.633Z,8.27
2023-04-10T11:23:50.184Z,7.40
2023-04-10T11:26:39.882Z,8.48
2023-04-10T11:29:27.406Z,7.93
2023-04-10T11:31:54.862Z,8.15
2023-04-10T11:34:22.748Z,8.10
2023-04-10T11:36:50.417Z,8.15
2023-04-10T11:39:18.845Z,7.97
2023-04-10T11:41:50.766Z,7.50
2023-04-10T11:44:31.988Z,13.60
2023-04-10T11:46:59.725Z,10.55
2023-04-10T11:49:30.447Z,10.60
2023-04-10T11:51:57.946Z,9.15
2023-04-10T11:54:27.299Z,9.00
2023-04-10T11:57:07.243Z,9.10
2023-04-10T11:59:35.414Z,9.68
2023-04-10T12:02:11.585Z,11.30
2023-04-10T12:04:40.296Z,9.95
2023-04-10T12:07:08.535Z,10.90
2023-04-10T12:09:36.467Z,8.63
2023-04-10T12:12:08.416Z,8.05
2023-04-10T12:14:40.402Z,9.18
2023-04-10T12:17:10.425Z,8.82
2023-04-10T12:19:41.041Z,7.97
2023-04-10T12:22:12.741Z,10.02
2023-04-10T12:24:47.773Z,9.18
2023-04-10T12:27:23.445Z,12.37
2023-04-10T12:29:52.522Z,9.55
2023-04-10T12:32:20.814Z,9.55
2023-04-10T12:34:52.674Z,9.90
2023-04-10T12:37:20.740Z,9.70
2023-04-10T12:39:48.248Z,11.20
2023-04-10T12:42:17.768Z,9.93
2023-04-10T12:44:55.309Z,9.75
2023-04-10T12:47:23.547Z,10.55
2023-04-10T12:50:07.937Z,11.10
2023-04-10T12:52:36.087Z,11.23
2023-04-10T12:55:19.955Z,12.07
2023-04-10T12:57:49.891Z,10.98
2023-04-10T13:00:19.225Z,11.07
2023-04-10T13:02:47.925Z,9.73
2023-04-10T13:05:16.004Z,9.52
2023-04-10T13:07:43.678Z,9.65
2023-04-10T13:10:11.288Z,11.48
2023-04-10T13:12:40.081Z,10.55
2023-04-10T13:15:08.222Z,12.48
2023-04-10T13:17:36.048Z,9.57
2023-04-10T13:20:04.683Z,9.30
2023-04-10T13:22:32.355Z,9.68
2023-04-10T13:24:59.830Z,8.80
2023-04-10T13:27:27.211Z,9.07
2023-04-10T13:29:55.264Z,8.23
2023-04-10T13:32:22.658Z,8.13
2023-04-10T13:34:50.290Z,8.10
2023-04-10T13:37:17.980Z,6.72
2023-04-10T13:39:45.369Z,7.47
2023-04-10T13:42:13.728Z,7.37
2023-04-10T13:44:41.464Z,6.75
2023-04-10T13:47:09.197Z,7.95
2023-04-10T13:49:37.781Z,8.02
2023-04-10T13:52:05.515Z,7.70
2023-04-10T13:54:32.920Z,7.45
2023-04-10T13:57:00.703Z,6.82
2023-04-10T13:59:29.239Z,8.50
2023-04-10T14:01:56.688Z,6.85
2023-04-10T14:04:24.366Z,6.87
2023-04-10T14:06:53.159Z,6.70
2023-04-10T14:09:20.722Z,6.82
2023-04-10T14:11:48.417Z,6.75
2023-04-10T14:14:15.928Z,7.12
2023-04-10T14:16:43.339Z,6.97
2023-04-10T14:19:11.045Z,6.72
2023-04-10T14:21:40.503Z,6.65
2023-04-10T14:24:07.889Z,6.57
2023-04-10T14:26:35.569Z,7.43
2023-04-10T14:29:03.070Z,6.30
2023-04-10T14:31:30.489Z,6.62
2023-04-10T14:33:58.200Z,6.70
2023-04-10T14:36:25.641Z,7.37
2023-04-10T14:38:53.158Z,6.45
2023-04-10T14:41:21.256Z,6.78
2023-04-10T14:43:48.660Z,6.62
2023-04-10T14:46:17.734Z,6.45
2023-04-10T14:48:46.450Z,6.20
2023-04-10T14:51:13.821Z,6.28
2023-04-10T14:53:41.305Z,6.43
2023-04-10T14:56:12.382Z,6.12
2023-04-10T14:58:40.083Z,6.30
2023-04-10T15:01:11.827Z,5.57
2023-04-10T15:03:40.249Z,5.78
2023-04-10T15:06:08.105Z,5.37
2023-04-10T15:08:35.527Z,6.25
2023-04-10T15:11:05.223Z,5.78
2023-04-10T15:13:33.014Z,5.22
2023-04-10T15:16:00.644Z,5.85
2023-04-10T15:18:28.422Z,5.47
2023-04-10T15:20:58.330Z,5.68
2023-04-10T15:23:26.718Z,5.47
2023-04-10T15:25:55.006Z,5.35
2023-04-10T15:28:22.348Z,5.65
2023-04-10T15:30:50.261Z,5.28
2023-04-10T15:33:18.008Z,5.68
2023-04-10T15:35:49.416Z,6.15
2023-04-10T15:38:16.875Z,5.53
2023-04-10T15:40:44.515Z,6.00
2023-04-10T15:43:12.841Z,5.10
2023-04-10T15:45:40.211Z,5.50
2023-04-10T15:48:07.929Z,5.35
2023-04-10T15:50:37.389Z,6.00
2023-04-10T15:53:04.825Z,5.45
2023-04-10T15:55:32.524Z,5.57
2023-04-10T15:58:02.260Z,6.03
2023-04-10T16:00:29.988Z,5.50
2023-04-10T16:02:58.473Z,5.72
2023-04-10T16:05:26.094Z,6.35
2023-04-10T16:07:53.464Z,5.95
2023-04-10T16:10:21.400Z,6.22
2023-04-10T16:12:50.877Z,5.50
2023-04-10T16:15:18.458Z,4.93
2023-04-10T16:17:46.205Z,5.85
2023-04-10T16:20:14.274Z,5.82
2023-04-10T16:22:41.663Z,5.90
2023-04-10T16:25:09.608Z,6.00
2023-04-10T16:27:37.024Z,6.03
2023-04-10T16:30:06.549Z,6.50
2023-04-10T16:32:34.296Z,6.03
2023-04-10T16:35:01.684Z,5.78
2023-04-10T16:37:29.128Z,5.75
2023-04-10T16:39:56.853Z,5.50
2023-04-10T16:42:24.258Z,5.72
2023-04-10T16:44:52.145Z,5.20
2023-04-10T16:47:19.818Z,6.37
2023-04-10T16:49:47.291Z,6.03
2023-04-10T16:52:14.728Z,5.93
2023-04-10T16:54:42.366Z,5.57
2023-04-10T16:57:09.714Z,6.28
2023-04-10T16:59:37.092Z,5.62
2023-04-10T17:02:04.751Z,5.40
2023-04-10T17:04:32.133Z,6.22
2023-04-10T17:06:59.516Z,5.85
2023-04-10T17:09:28.339Z,6.72
2023-04-10T17:11:55.961Z,6.03
2023-04-10T17:14:25.207Z,6.30
2023-04-10T17:16:53.989Z,6.22
2023-04-10T17:19:21.519Z,5.70
2023-04-10T17:21:48.883Z,6.30
2023-04-10T17:24:17.365Z,6.20
2023-04-10T17:26:44.826Z,5.87
2023-04-10T17:29:12.201Z,6.10
2023-04-10T17:31:39.871Z,6.50
2023-04-10T17:34:07.270Z,6.32
2023-04-10T17:36:35.877Z,6.35
2023-04-10T17:39:03.712Z,5.57
2023-04-10T17:41:33.418Z,5.90
2023-04-10T17:44:02.524Z,6.72
2023-04-10T17:46:30.173Z,7.18
2023-04-10T17:49:01.164Z,7.57
2023-04-10T17:51:28.923Z,6.70
2023-04-10T17:53:56.698Z,7.25
2023-04-10T17:56:24.074Z,11.98
2023-04-10T17:58:53.199Z,9.48
2023-04-10T18:01:27.551Z,8.52
2023-04-10T18:03:56.185Z,10.82
2023-04-10T18:06:23.796Z,11.60
2023-04-10T18:08:51.329Z,11.80
2023-04-10T18:11:19.592Z,12.23
2023-04-10T18:13:47.490Z,13.23
2023-04-10T18:16:15.011Z,14.60
2023-04-10T18:18:43.167Z,15.90
2023-04-10T18:21:11.575Z,13.80
2023-04-10T18:23:40.542Z,18.45
2023-04-10T18:26:08.410Z,16.83
2023-04-10T18:28:37.767Z,16.92
2023-04-10T18:31:05.349Z,17.77
2023-04-10T18:33:33.351Z,16.35
2023-04-10T18:36:00.727Z,17.92
2023-04-10T18:38:28.280Z,19.50
2023-04-10T18:40:57.188Z,17.42
2023-04-10T18:43:27.668Z,16.45
2023-04-10T18:45:55.829Z,16.85
2023-04-10T18:48:23.566Z,16.33
2023-04-10T18:50:55.561Z,17.95
2023-04-10T18:53:24.137Z,18.17
2023-04-10T18:55:53.958Z,17.50
2023-04-10T18:58:22.517Z,19.52
2023-04-10T19:00:50.342Z,16.42
2023-04-10T19:03:18.346Z,16.58
2023-04-10T19:05:46.114Z,16.67
2023-04-10T19:08:16.148Z,16.20
2023-04-10T19:10:44.100Z,16.45
2023-04-10T19:13:12.880Z,17.73
2023-04-10T19:15:42.299Z,17.67
2023-04-10T19:18:11.788Z,19.20
2023-04-10T19:20:50.738Z,19.58
2023-04-10T19:23:21.106Z,20.40
2023-04-10T19:25:55.558Z,21.15
2023-04-10T19:28:24.112Z,19.37
2023-04-10T19:30:52.468Z,21.25
2023-04-10T19:33:20.548Z,16.00
2023-04-10T19:35:48.032Z,15.95
2023-04-10T19:38:15.754Z,14.82
2023-04-10T19:40:44.928Z,10.57
2023-04-10T19:43:12.788Z,11.10
2023-04-10T19:45:41.039Z,10.55
2023-04-10T19:48:10.083Z,11.68
2023-04-10T19:50:37.716Z,11.45
2023-04-10T19:53:05.433Z,10.18
2023-04-10T19:55:32.962Z,9.48
2023-04-10T19:58:02.204Z,10.38
2023-04-10T20:00:30.235Z,9.43
2023-04-10T20:02:58.586Z,9.63
2023-04-10T20:05:26.366Z,10.50
2023-04-10T20:07:54.092Z,9.55
2023-04-10T20:10:22.063Z,9.23
2023-04-10T20:12:49.429Z,8.77
2023-04-10T20:15:17.567Z,8.77
2023-04-10T20:17:46.797Z,9.45
2023-04-10T20:20:14.383Z,9.43
2023-04-10T20:22:41.777Z,8.73
2023-04-10T20:25:09.749Z,8.88
2023-04-10T20:27:37.198Z,9.65
2023-04-10T20:30:05.148Z,8.45
2023-04-10T20:32:32.803Z,12.05
2023-04-10T20:35:00.205Z,13.18
2023-04-10T20:37:27.624Z,12.37
2023-04-10T20:39:55.280Z,10.88
2023-04-10T20:42:23.243Z,10.85
2023-04-10T20:44:50.682Z,10.75
2023-04-10T20:47:18.351Z,10.23
2023-04-10T20:49:45.756Z,11.38
2023-04-10T20:52:13.371Z,11.12
2023-04-10T20:54:41.050Z,9.75
2023-04-10T20:57:08.456Z,11.00
2023-04-10T20:59:36.638Z,11.10
2023-04-10T21:02:04.358Z,11.20
2023-04-10T21:04:32.828Z,10.43
2023-04-10T21:07:00.421Z,9.82
2023-04-10T21:09:28.090Z,10.65
2023-04-10T21:11:55.533Z,10.23
2023-04-10T21:14:22.921Z,9.85
2023-04-10T21:16:50.707Z,11.40
2023-04-10T21:19:18.201Z,10.77
2023-04-10T21:21:45.592Z,11.27
2023-04-10T21:24:13.342Z,12.13
2023-04-10T21:26:40.874Z,12.32
2023-04-10T21:29:08.277Z,12.52
2023-04-10T21:31:36.072Z,12.18
2023-04-10T21:34:03.685Z,14.15
2023-04-10T21:36:32.690Z,14.15
2023-04-10T21:39:01.353Z,13.48
2023-04-10T21:41:28.788Z,16.55
2023-04-10T21:44:00.268Z,16.30
2023-04-10T21:46:28.203Z,15.68
2023-04-10T21:48:55.826Z,16.37
2023-04-10T21:51:25.743Z,16.33
2023-04-10T21:53:54.934Z,16.00
2023-04-10T21:56:22.363Z,15.98
2023-04-10T21:58:49.766Z,16.50
2023-04-10T22:01:17.469Z,16.17
2023-04-10T22:03:45.184Z,15.57
2023-04-10T22:06:12.618Z,17.15
2023-04-10T22:08:41.297Z,17.12
2023-04-10T22:11:09.011Z,16.45
2023-04-10T22:13:36.504Z,17.05
2023-04-10T22:16:05.353Z,16.08
2023-04-10T22:18:33.596Z,16.05
2023-04-10T22:21:01.011Z,16.65
2023-04-10T22:23:28.433Z,16.33
2023-04-10T22:25:56.044Z,17.83
2023-04-10T22:28:23.444Z,16.87
2023-04-10T22:30:51.028Z,17.73
2023-04-10T22:33:18.752Z,18.73
2023-04-10T22:35:46.300Z,19.98
2023-04-10T22:38:13.686Z,18.35
2023-04-10T22:40:43.004Z,18.65
2023-04-10T22:43:10.995Z,18.67
2023-04-10T22:45:40.287Z,18.65
2023-04-10T22:48:07.988Z,17.02
2023-04-10T22:50:35.482Z,19.45
2023-04-10T22:53:02.901Z,19.62
2023-04-10T22:55:30.636Z,17.23
2023-04-10T22:57:58.014Z,18.60
2023-04-10T23:00:25.465Z,17.98
2023-04-10T23:02:53.178Z,18.80
2023-04-10T23:05:20.627Z,17.95
2023-04-10T23:07:48.027Z,18.90
2023-04-10T23:10:15.760Z,19.83
2023-04-10T23:12:43.209Z,21.17
2023-04-10T23:15:10.932Z,20.10
2023-04-10T23:17:38.842Z,20.25
2023-04-10T23:20:06.868Z,20.37
2023-04-10T23:22:34.298Z,21.23
2023-04-10T23:25:02.057Z,21.42
2023-04-10T23:27:29.541Z,21.60
2023-04-10T23:29:56.906Z,22.08
2023-04-10T23:32:24.575Z,20.88
2023-04-10T23:34:52.032Z,21.87
2023-04-10T23:37:19.423Z,23.27
2023-04-10T23:39:47.027Z,22.30
2023-04-10T23:42:14.389Z,22.77
2023-04-10T23:44:41.727Z,22.73
2023-04-10T23:47:09.383Z,22.98
2023-04-10T23:49:36.779Z,22.67
2023-04-10T23:52:04.287Z,22.02
2023-04-10T23:54:31.924Z,22.52
2023-04-10T23:56:59.444Z,22.45
2023-04-10T23:59:26.808Z,22.55
